עמוד ראשי
METAR-TAF:

METAR-TAF

שדות תעופה :

קזבלנקה, מרוקו

קו רוחב: 33-34N, קו אורך: 007-40W, גובה: 62מטר

תצפית מזג אוויר נוכחית

הדו"ח נערך לפני 1 שעות ו 9דקות, בשעה 10:00 UTC
רוח 5קשר מכיוון צפון-מערב
טמפרטורת 22 צלסיוס
לחות 78%
לחץ 1011 hPa
ראות: 5000מטר
מעונן בגובה 1000רגל

METAR: GMMC 251000Z 32005KT 5000 OVC010 22/18 Q1011

זמן: 12:09 (11:09 UTC)


TAF: חסר

תצפיות ותחזיות מזג אוויר לגבי יותר מ- 4,000 שדות תעופה ברחבי העולם. דוחות METAR ו- TAF.

התחנות הזמינות מסומנות בנקודות צהובות ואדומות על גבי המפה.

העבר את העכבר לנקודה הצבעונית על מנת לראות את שם התחנה.

לאחר מכן, לחץ כדי לראות את תוכן ואת תחזיות מזג האוויר.

כדי לשנות את המפה: לחץ על הכפתורים הירוקים עם הפלוס השחור כדי להתקרב; על הכפתור הירוק עם המקף כדי להתרחק; או בחיצים הירוקים למפות סמוכות.


METAR-TAF: